Hooppole, Illinois
Current Conditions -  °F | °C
As of 5:15 AM on Friday 28 Nov 2014 (Local Time) from KSQI Reporting Station
Overcast Overcast  
Wind Chill:   Ceiling: 9000
Heat Index: 18°   Visibility: 10mi
Dew Point: 10°   Wind: 7mph
Humidity: 73%   Direction: 130°SE
Pressure: 30.27"   Gusts: NA
Location:  41.52°N, 89.91°W
Report Text: KSQI 281115Z 13006KT 10SM SCT075 OVC090 M08/M12 A3027 RMK AO1
Loading
Personal Weather Stations






























Interactive Weather Map New forecast layout! Learn more

10-Day Weather Forecast

Advertisements
Track Severe Weather on mobile